sensor_id;sensor_type;location;lat;lon;timestamp;temperature;humidity
68922;DHT22;55959;51.244;5.724;2023-09-07T00:00:42;24.30;54.60
68922;DHT22;55959;51.244;5.724;2023-09-07T00:03:08;24.20;54.50
68922;DHT22;55959;51.244;5.724;2023-09-07T00:05:34;24.20;54.50
68922;DHT22;55959;51.244;5.724;2023-09-07T00:08:00;24.20;54.60
68922;DHT22;55959;51.244;5.724;2023-09-07T00:10:26;24.20;54.60
68922;DHT22;55959;51.244;5.724;2023-09-07T00:12:52;24.20;54.60
68922;DHT22;55959;51.244;5.724;2023-09-07T00:15:18;24.20;54.60
68922;DHT22;55959;51.244;5.724;2023-09-07T00:17:45;24.20;54.60
68922;DHT22;55959;51.244;5.724;2023-09-07T00:20:11;24.10;54.60
68922;DHT22;55959;51.244;5.724;2023-09-07T00:22:40;24.10;54.70
68922;DHT22;55959;51.244;5.724;2023-09-07T00:25:06;24.10;54.70
68922;DHT22;55959;51.244;5.724;2023-09-07T00:27:35;24.10;54.70
68922;DHT22;55959;51.244;5.724;2023-09-07T00:30:02;24.00;54.70
68922;DHT22;55959;51.244;5.724;2023-09-07T00:32:31;24.00;54.70
68922;DHT22;55959;51.244;5.724;2023-09-07T00:34:58;24.00;54.70
68922;DHT22;55959;51.244;5.724;2023-09-07T00:37:23;24.00;54.80
68922;DHT22;55959;51.244;5.724;2023-09-07T00:39:49;24.00;54.90
68922;DHT22;55959;51.244;5.724;2023-09-07T00:42:16;23.90;54.90
68922;DHT22;55959;51.244;5.724;2023-09-07T00:44:42;23.90;55.10
68922;DHT22;55959;51.244;5.724;2023-09-07T00:47:07;23.90;55.20
68922;DHT22;55959;51.244;5.724;2023-09-07T00:49:33;23.90;55.20
68922;DHT22;55959;51.244;5.724;2023-09-07T00:51:59;23.80;55.30
68922;DHT22;55959;51.244;5.724;2023-09-07T00:54:25;23.80;55.30
68922;DHT22;55959;51.244;5.724;2023-09-07T00:56:50;23.70;55.40
68922;DHT22;55959;51.244;5.724;2023-09-07T00:59:16;23.70;55.60
68922;DHT22;55959;51.244;5.724;2023-09-07T01:01:43;23.60;55.50
68922;DHT22;55959;51.244;5.724;2023-09-07T01:04:09;23.70;55.80
68922;DHT22;55959;51.244;5.724;2023-09-07T01:06:41;23.60;55.90
68922;DHT22;55959;51.244;5.724;2023-09-07T01:09:19;23.60;56.00
68922;DHT22;55959;51.244;5.724;2023-09-07T01:11:47;23.60;56.10
68922;DHT22;55959;51.244;5.724;2023-09-07T01:14:13;23.50;56.10
68922;DHT22;55959;51.244;5.724;2023-09-07T01:16:39;23.50;56.10
68922;DHT22;55959;51.244;5.724;2023-09-07T01:19:06;23.50;56.10
68922;DHT22;55959;51.244;5.724;2023-09-07T01:21:37;23.40;56.10
68922;DHT22;55959;51.244;5.724;2023-09-07T01:24:06;23.40;56.30
68922;DHT22;55959;51.244;5.724;2023-09-07T01:26:34;23.40;56.70
68922;DHT22;55959;51.244;5.724;2023-09-07T01:29:01;23.30;56.90
68922;DHT22;55959;51.244;5.724;2023-09-07T01:31:27;23.30;57.00
68922;DHT22;55959;51.244;5.724;2023-09-07T01:33:53;23.30;57.10
68922;DHT22;55959;51.244;5.724;2023-09-07T01:36:30;23.20;57.10
68922;DHT22;55959;51.244;5.724;2023-09-07T01:39:03;23.20;57.20
68922;DHT22;55959;51.244;5.724;2023-09-07T01:41:32;23.10;57.20
68922;DHT22;55959;51.244;5.724;2023-09-07T01:43:59;23.10;57.20
68922;DHT22;55959;51.244;5.724;2023-09-07T01:46:27;23.10;57.90
68922;DHT22;55959;51.244;5.724;2023-09-07T01:48:54;23.10;57.30
68922;DHT22;55959;51.244;5.724;2023-09-07T01:51:20;23.00;57.30
68922;DHT22;55959;51.244;5.724;2023-09-07T01:53:50;23.00;57.30
68922;DHT22;55959;51.244;5.724;2023-09-07T01:56:20;23.00;57.40
68922;DHT22;55959;51.244;5.724;2023-09-07T01:58:46;22.90;57.40
68922;DHT22;55959;51.244;5.724;2023-09-07T02:01:29;22.90;57.40
68922;DHT22;55959;51.244;5.724;2023-09-07T02:03:56;22.90;57.60
68922;DHT22;55959;51.244;5.724;2023-09-07T02:06:22;22.80;57.60
68922;DHT22;55959;51.244;5.724;2023-09-07T02:08:48;22.80;57.70
68922;DHT22;55959;51.244;5.724;2023-09-07T02:11:14;22.80;57.80
68922;DHT22;55959;51.244;5.724;2023-09-07T02:13:47;22.70;57.90
68922;DHT22;55959;51.244;5.724;2023-09-07T02:16:13;22.70;58.00
68922;DHT22;55959;51.244;5.724;2023-09-07T02:18:39;22.70;58.10
68922;DHT22;55959;51.244;5.724;2023-09-07T02:21:12;22.60;58.10
68922;DHT22;55959;51.244;5.724;2023-09-07T02:23:39;22.60;58.80
68922;DHT22;55959;51.244;5.724;2023-09-07T02:26:04;22.60;58.30
68922;DHT22;55959;51.244;5.724;2023-09-07T02:28:30;22.50;58.40
68922;DHT22;55959;51.244;5.724;2023-09-07T02:31:05;22.50;58.40
68922;DHT22;55959;51.244;5.724;2023-09-07T02:33:32;22.50;58.50
68922;DHT22;55959;51.244;5.724;2023-09-07T02:35:58;22.40;58.50
68922;DHT22;55959;51.244;5.724;2023-09-07T02:38:25;22.40;58.60
68922;DHT22;55959;51.244;5.724;2023-09-07T02:40:51;22.40;58.70
68922;DHT22;55959;51.244;5.724;2023-09-07T02:43:17;22.30;58.70
68922;DHT22;55959;51.244;5.724;2023-09-07T02:45:43;22.30;58.80
68922;DHT22;55959;51.244;5.724;2023-09-07T02:48:09;22.30;58.80
68922;DHT22;55959;51.244;5.724;2023-09-07T02:50:35;22.20;58.90
68922;DHT22;55959;51.244;5.724;2023-09-07T02:53:01;22.20;58.90
68922;DHT22;55959;51.244;5.724;2023-09-07T02:55:29;22.20;59.00
68922;DHT22;55959;51.244;5.724;2023-09-07T02:57:56;22.10;59.00
68922;DHT22;55959;51.244;5.724;2023-09-07T03:00:23;22.10;59.00
68922;DHT22;55959;51.244;5.724;2023-09-07T03:02:50;22.10;59.10
68922;DHT22;55959;51.244;5.724;2023-09-07T03:05:16;22.00;59.10
68922;DHT22;55959;51.244;5.724;2023-09-07T03:07:43;22.00;59.20
68922;DHT22;55959;51.244;5.724;2023-09-07T03:10:10;22.00;59.20
68922;DHT22;55959;51.244;5.724;2023-09-07T03:12:36;22.00;59.30
68922;DHT22;55959;51.244;5.724;2023-09-07T03:15:02;21.90;59.30
68922;DHT22;55959;51.244;5.724;2023-09-07T03:17:29;21.90;59.30
68922;DHT22;55959;51.244;5.724;2023-09-07T03:19:55;21.90;59.50
68922;DHT22;55959;51.244;5.724;2023-09-07T03:22:22;21.90;59.50
68922;DHT22;55959;51.244;5.724;2023-09-07T03:24:50;21.80;59.50
68922;DHT22;55959;51.244;5.724;2023-09-07T03:27:16;21.80;59.50
68922;DHT22;55959;51.244;5.724;2023-09-07T03:29:41;21.80;59.50
68922;DHT22;55959;51.244;5.724;2023-09-07T03:32:09;21.80;59.50
68922;DHT22;55959;51.244;5.724;2023-09-07T03:34:35;21.70;59.50
68922;DHT22;55959;51.244;5.724;2023-09-07T03:37:01;21.70;59.50
68922;DHT22;55959;51.244;5.724;2023-09-07T03:39:26;21.70;59.50
68922;DHT22;55959;51.244;5.724;2023-09-07T03:41:52;21.70;59.50
68922;DHT22;55959;51.244;5.724;2023-09-07T03:44:18;21.60;59.60
68922;DHT22;55959;51.244;5.724;2023-09-07T03:46:44;21.60;59.70
68922;DHT22;55959;51.244;5.724;2023-09-07T03:49:09;21.60;59.70
68922;DHT22;55959;51.244;5.724;2023-09-07T03:51:35;21.60;59.80
68922;DHT22;55959;51.244;5.724;2023-09-07T03:54:02;21.50;59.80
68922;DHT22;55959;51.244;5.724;2023-09-07T03:56:28;21.50;59.90
68922;DHT22;55959;51.244;5.724;2023-09-07T03:58:54;21.50;60.00
68922;DHT22;55959;51.244;5.724;2023-09-07T04:01:20;21.50;60.00
68922;DHT22;55959;51.244;5.724;2023-09-07T04:03:46;21.50;60.10
68922;DHT22;55959;51.244;5.724;2023-09-07T04:06:12;21.40;60.10
68922;DHT22;55959;51.244;5.724;2023-09-07T04:08:37;21.40;60.20
68922;DHT22;55959;51.244;5.724;2023-09-07T04:11:04;21.40;60.20
68922;DHT22;55959;51.244;5.724;2023-09-07T04:13:31;21.40;60.30
68922;DHT22;55959;51.244;5.724;2023-09-07T04:15:57;21.40;60.40
68922;DHT22;55959;51.244;5.724;2023-09-07T04:18:24;21.40;60.40
68922;DHT22;55959;51.244;5.724;2023-09-07T04:20:50;21.40;60.40
68922;DHT22;55959;51.244;5.724;2023-09-07T04:23:15;21.30;60.50
68922;DHT22;55959;51.244;5.724;2023-09-07T04:25:41;21.30;60.60
68922;DHT22;55959;51.244;5.724;2023-09-07T04:28:07;21.30;60.80
68922;DHT22;55959;51.244;5.724;2023-09-07T04:30:37;21.30;61.00
68922;DHT22;55959;51.244;5.724;2023-09-07T04:33:04;21.30;61.20
68922;DHT22;55959;51.244;5.724;2023-09-07T04:35:30;21.20;61.20
68922;DHT22;55959;51.244;5.724;2023-09-07T04:37:56;21.20;61.30
68922;DHT22;55959;51.244;5.724;2023-09-07T04:40:29;21.20;61.40
68922;DHT22;55959;51.244;5.724;2023-09-07T04:42:58;21.20;61.40
68922;DHT22;55959;51.244;5.724;2023-09-07T04:45:29;21.10;61.40
68922;DHT22;55959;51.244;5.724;2023-09-07T04:47:54;21.10;61.40
68922;DHT22;55959;51.244;5.724;2023-09-07T04:50:20;21.10;61.50
68922;DHT22;55959;51.244;5.724;2023-09-07T04:52:51;21.10;61.50
68922;DHT22;55959;51.244;5.724;2023-09-07T04:55:22;21.00;61.70
68922;DHT22;55959;51.244;5.724;2023-09-07T04:57:48;21.00;61.70
68922;DHT22;55959;51.244;5.724;2023-09-07T05:00:14;21.00;61.80
68922;DHT22;55959;51.244;5.724;2023-09-07T05:02:40;21.00;61.90
68922;DHT22;55959;51.244;5.724;2023-09-07T05:05:08;21.00;62.00
68922;DHT22;55959;51.244;5.724;2023-09-07T05:07:42;21.00;62.10
68922;DHT22;55959;51.244;5.724;2023-09-07T05:10:10;20.90;62.10
68922;DHT22;55959;51.244;5.724;2023-09-07T05:12:37;20.90;62.20
68922;DHT22;55959;51.244;5.724;2023-09-07T05:15:05;20.90;62.20
68922;DHT22;55959;51.244;5.724;2023-09-07T05:17:32;20.90;62.30
68922;DHT22;55959;51.244;5.724;2023-09-07T05:19:58;20.90;62.40
68922;DHT22;55959;51.244;5.724;2023-09-07T05:22:23;20.90;62.40
68922;DHT22;55959;51.244;5.724;2023-09-07T05:24:51;20.90;62.40
68922;DHT22;55959;51.244;5.724;2023-09-07T05:27:17;20.90;62.60
68922;DHT22;55959;51.244;5.724;2023-09-07T05:29:42;20.90;62.60
68922;DHT22;55959;51.244;5.724;2023-09-07T05:32:10;20.90;62.70
68922;DHT22;55959;51.244;5.724;2023-09-07T05:34:35;20.90;62.70
68922;DHT22;55959;51.244;5.724;2023-09-07T05:37:01;20.90;62.80
68922;DHT22;55959;51.244;5.724;2023-09-07T05:39:27;20.90;62.90
68922;DHT22;55959;51.244;5.724;2023-09-07T05:41:52;20.90;62.90
68922;DHT22;55959;51.244;5.724;2023-09-07T05:44:18;20.90;63.00
68922;DHT22;55959;51.244;5.724;2023-09-07T05:46:44;20.90;63.00
68922;DHT22;55959;51.244;5.724;2023-09-07T05:49:10;20.90;63.10
68922;DHT22;55959;51.244;5.724;2023-09-07T05:51:35;20.90;63.10
68922;DHT22;55959;51.244;5.724;2023-09-07T05:54:01;20.90;63.10
68922;DHT22;55959;51.244;5.724;2023-09-07T05:56:27;20.90;63.20
68922;DHT22;55959;51.244;5.724;2023-09-07T05:58:52;20.90;63.20
68922;DHT22;55959;51.244;5.724;2023-09-07T06:01:18;21.00;64.20
68922;DHT22;55959;51.244;5.724;2023-09-07T06:03:44;21.00;63.20
68922;DHT22;55959;51.244;5.724;2023-09-07T06:06:10;21.00;63.30
68922;DHT22;55959;51.244;5.724;2023-09-07T06:08:35;21.00;63.30
68922;DHT22;55959;51.244;5.724;2023-09-07T06:11:01;21.00;63.30
68922;DHT22;55959;51.244;5.724;2023-09-07T06:13:27;21.10;63.40
68922;DHT22;55959;51.244;5.724;2023-09-07T06:15:52;21.10;63.40
68922;DHT22;55959;51.244;5.724;2023-09-07T06:18:18;21.20;63.50
68922;DHT22;55959;51.244;5.724;2023-09-07T06:20:52;21.10;63.40
68922;DHT22;55959;51.244;5.724;2023-09-07T06:23:19;21.20;63.60
68922;DHT22;55959;51.244;5.724;2023-09-07T06:25:47;21.20;63.60
68922;DHT22;55959;51.244;5.724;2023-09-07T06:28:16;21.20;63.60
68922;DHT22;55959;51.244;5.724;2023-09-07T06:30:44;21.20;63.60
68922;DHT22;55959;51.244;5.724;2023-09-07T06:33:09;21.30;63.60
68922;DHT22;55959;51.244;5.724;2023-09-07T06:35:35;21.30;63.50
68922;DHT22;55959;51.244;5.724;2023-09-07T06:38:02;21.30;63.60
68922;DHT22;55959;51.244;5.724;2023-09-07T06:40:28;21.30;63.60
68922;DHT22;55959;51.244;5.724;2023-09-07T06:42:55;21.40;63.60
68922;DHT22;55959;51.244;5.724;2023-09-07T06:45:24;21.40;63.70
68922;DHT22;55959;51.244;5.724;2023-09-07T06:47:59;21.50;64.00
68922;DHT22;55959;51.244;5.724;2023-09-07T06:50:26;21.60;64.30
68922;DHT22;55959;51.244;5.724;2023-09-07T06:52:53;21.70;64.40
68922;DHT22;55959;51.244;5.724;2023-09-07T06:55:18;21.90;64.60
68922;DHT22;55959;51.244;5.724;2023-09-07T06:57:45;22.10;64.20
68922;DHT22;55959;51.244;5.724;2023-09-07T07:00:11;22.30;63.70
68922;DHT22;55959;51.244;5.724;2023-09-07T07:02:37;22.50;63.10
68922;DHT22;55959;51.244;5.724;2023-09-07T07:05:04;22.70;62.80
68922;DHT22;55959;51.244;5.724;2023-09-07T07:07:30;22.90;62.30
68922;DHT22;55959;51.244;5.724;2023-09-07T07:09:56;23.20;61.80
68922;DHT22;55959;51.244;5.724;2023-09-07T07:12:23;23.30;61.30
68922;DHT22;55959;51.244;5.724;2023-09-07T07:14:48;23.50;60.70
68922;DHT22;55959;51.244;5.724;2023-09-07T07:17:14;23.60;60.00
68922;DHT22;55959;51.244;5.724;2023-09-07T07:19:40;23.70;59.60
68922;DHT22;55959;51.244;5.724;2023-09-07T07:22:06;23.70;59.30
68922;DHT22;55959;51.244;5.724;2023-09-07T07:24:32;23.80;59.30
68922;DHT22;55959;51.244;5.724;2023-09-07T07:26:58;23.80;59.20
68922;DHT22;55959;51.244;5.724;2023-09-07T07:29:24;23.90;59.30
68922;DHT22;55959;51.244;5.724;2023-09-07T07:31:51;23.90;59.20
68922;DHT22;55959;51.244;5.724;2023-09-07T07:34:16;24.00;59.10
68922;DHT22;55959;51.244;5.724;2023-09-07T07:36:42;24.00;59.00
68922;DHT22;55959;51.244;5.724;2023-09-07T07:39:08;24.00;58.90
68922;DHT22;55959;51.244;5.724;2023-09-07T07:41:33;24.10;58.90
68922;DHT22;55959;51.244;5.724;2023-09-07T07:43:59;24.10;58.80
68922;DHT22;55959;51.244;5.724;2023-09-07T07:46:25;24.10;58.80
68922;DHT22;55959;51.244;5.724;2023-09-07T07:48:50;24.10;58.80
68922;DHT22;55959;51.244;5.724;2023-09-07T07:51:16;24.10;58.70
68922;DHT22;55959;51.244;5.724;2023-09-07T07:53:42;24.10;58.70
68922;DHT22;55959;51.244;5.724;2023-09-07T07:56:15;24.20;58.60
68922;DHT22;55959;51.244;5.724;2023-09-07T07:58:41;24.20;58.50
68922;DHT22;55959;51.244;5.724;2023-09-07T08:01:15;24.20;58.40
68922;DHT22;55959;51.244;5.724;2023-09-07T08:03:43;24.20;58.50
68922;DHT22;55959;51.244;5.724;2023-09-07T08:06:09;24.20;58.50
68922;DHT22;55959;51.244;5.724;2023-09-07T08:08:36;24.30;58.50
68922;DHT22;55959;51.244;5.724;2023-09-07T08:11:02;24.30;58.50
68922;DHT22;55959;51.244;5.724;2023-09-07T08:13:32;24.30;58.50
68922;DHT22;55959;51.244;5.724;2023-09-07T08:16:00;24.30;58.40
68922;DHT22;55959;51.244;5.724;2023-09-07T08:18:27;24.40;58.40
68922;DHT22;55959;51.244;5.724;2023-09-07T08:20:53;24.40;58.30
68922;DHT22;55959;51.244;5.724;2023-09-07T08:23:21;24.40;58.30
68922;DHT22;55959;51.244;5.724;2023-09-07T08:25:48;24.40;58.20
68922;DHT22;55959;51.244;5.724;2023-09-07T08:28:14;24.50;58.40
68922;DHT22;55959;51.244;5.724;2023-09-07T08:30:41;24.50;58.30
68922;DHT22;55959;51.244;5.724;2023-09-07T08:33:07;24.60;58.00
68922;DHT22;55959;51.244;5.724;2023-09-07T08:35:33;24.60;57.70
68922;DHT22;55959;51.244;5.724;2023-09-07T08:38:01;24.70;57.50
68922;DHT22;55959;51.244;5.724;2023-09-07T08:40:30;24.70;57.60
68922;DHT22;55959;51.244;5.724;2023-09-07T08:42:59;24.80;57.10
68922;DHT22;55959;51.244;5.724;2023-09-07T08:45:29;24.80;56.80
68922;DHT22;55959;51.244;5.724;2023-09-07T08:47:57;24.90;57.40
68922;DHT22;55959;51.244;5.724;2023-09-07T08:50:24;24.90;56.60
68922;DHT22;55959;51.244;5.724;2023-09-07T08:52:52;25.00;56.40
68922;DHT22;55959;51.244;5.724;2023-09-07T08:55:19;25.00;56.30
68922;DHT22;55959;51.244;5.724;2023-09-07T08:57:46;25.10;56.30
68922;DHT22;55959;51.244;5.724;2023-09-07T09:00:12;25.20;56.40
68922;DHT22;55959;51.244;5.724;2023-09-07T09:02:42;25.30;56.30
68922;DHT22;55959;51.244;5.724;2023-09-07T09:05:12;25.30;56.10
68922;DHT22;55959;51.244;5.724;2023-09-07T09:07:40;25.40;56.20
68922;DHT22;55959;51.244;5.724;2023-09-07T09:10:06;25.50;56.20
68922;DHT22;55959;51.244;5.724;2023-09-07T09:12:33;25.50;56.10
68922;DHT22;55959;51.244;5.724;2023-09-07T09:15:00;25.60;55.90
68922;DHT22;55959;51.244;5.724;2023-09-07T09:17:29;25.60;55.60
68922;DHT22;55959;51.244;5.724;2023-09-07T09:19:55;25.70;55.60
68922;DHT22;55959;51.244;5.724;2023-09-07T09:22:21;25.80;55.60
68922;DHT22;55959;51.244;5.724;2023-09-07T09:24:50;25.90;55.60
68922;DHT22;55959;51.244;5.724;2023-09-07T09:27:16;25.90;55.70
68922;DHT22;55959;51.244;5.724;2023-09-07T09:29:42;26.00;55.70
68922;DHT22;55959;51.244;5.724;2023-09-07T09:32:13;26.10;55.70
68922;DHT22;55959;51.244;5.724;2023-09-07T09:34:39;26.10;55.20
68922;DHT22;55959;51.244;5.724;2023-09-07T09:37:13;26.20;54.90
68922;DHT22;55959;51.244;5.724;2023-09-07T09:39:41;26.30;54.80
68922;DHT22;55959;51.244;5.724;2023-09-07T09:42:08;26.40;54.70
68922;DHT22;55959;51.244;5.724;2023-09-07T09:44:34;26.40;54.70
68922;DHT22;55959;51.244;5.724;2023-09-07T09:47:02;26.50;54.80
68922;DHT22;55959;51.244;5.724;2023-09-07T09:49:29;26.60;54.60
68922;DHT22;55959;51.244;5.724;2023-09-07T09:51:56;26.70;54.30
68922;DHT22;55959;51.244;5.724;2023-09-07T09:54:24;26.70;53.90
68922;DHT22;55959;51.244;5.724;2023-09-07T09:56:51;26.80;53.60
68922;DHT22;55959;51.244;5.724;2023-09-07T09:59:17;26.90;53.70
68922;DHT22;55959;51.244;5.724;2023-09-07T10:01:45;27.00;53.40
68922;DHT22;55959;51.244;5.724;2023-09-07T10:04:13;27.00;53.30
68922;DHT22;55959;51.244;5.724;2023-09-07T10:06:53;27.10;53.20
68922;DHT22;55959;51.244;5.724;2023-09-07T10:09:20;27.10;52.60
68922;DHT22;55959;51.244;5.724;2023-09-07T10:11:52;27.20;52.80
68922;DHT22;55959;51.244;5.724;2023-09-07T10:14:21;27.30;53.00
68922;DHT22;55959;51.244;5.724;2023-09-07T10:16:49;27.40;53.10
68922;DHT22;55959;51.244;5.724;2023-09-07T10:19:21;27.50;53.00
68922;DHT22;55959;51.244;5.724;2023-09-07T10:21:48;27.50;52.20
68922;DHT22;55959;51.244;5.724;2023-09-07T10:24:33;27.60;52.80
68922;DHT22;55959;51.244;5.724;2023-09-07T10:27:05;27.60;51.70
68922;DHT22;55959;51.244;5.724;2023-09-07T10:29:45;27.70;51.70
68922;DHT22;55959;51.244;5.724;2023-09-07T10:32:14;27.80;51.30
68922;DHT22;55959;51.244;5.724;2023-09-07T10:34:42;27.90;51.20
68922;DHT22;55959;51.244;5.724;2023-09-07T10:37:11;27.90;51.20
68922;DHT22;55959;51.244;5.724;2023-09-07T10:39:39;28.00;50.80
68922;DHT22;55959;51.244;5.724;2023-09-07T10:42:08;28.10;50.80
68922;DHT22;55959;51.244;5.724;2023-09-07T10:44:34;28.10;50.80
68922;DHT22;55959;51.244;5.724;2023-09-07T10:47:00;28.20;50.60
68922;DHT22;55959;51.244;5.724;2023-09-07T10:49:26;28.30;50.80
68922;DHT22;55959;51.244;5.724;2023-09-07T10:51:51;28.30;50.40
68922;DHT22;55959;51.244;5.724;2023-09-07T10:54:22;28.40;50.50
68922;DHT22;55959;51.244;5.724;2023-09-07T10:56:49;28.50;50.40
68922;DHT22;55959;51.244;5.724;2023-09-07T10:59:16;28.60;50.10
68922;DHT22;55959;51.244;5.724;2023-09-07T11:01:46;28.60;50.20
68922;DHT22;55959;51.244;5.724;2023-09-07T11:04:13;28.70;50.00
68922;DHT22;55959;51.244;5.724;2023-09-07T11:06:40;28.80;50.20
68922;DHT22;55959;51.244;5.724;2023-09-07T11:09:08;28.80;50.00
68922;DHT22;55959;51.244;5.724;2023-09-07T11:11:36;28.90;50.30
68922;DHT22;55959;51.244;5.724;2023-09-07T11:14:05;29.00;50.20
68922;DHT22;55959;51.244;5.724;2023-09-07T11:16:33;29.10;50.00
68922;DHT22;55959;51.244;5.724;2023-09-07T11:19:06;29.10;50.00
68922;DHT22;55959;51.244;5.724;2023-09-07T11:21:34;29.20;49.90
68922;DHT22;55959;51.244;5.724;2023-09-07T11:24:01;29.20;49.90
68922;DHT22;55959;51.244;5.724;2023-09-07T11:26:40;29.40;49.70
68922;DHT22;55959;51.244;5.724;2023-09-07T11:29:09;29.40;49.80
68922;DHT22;55959;51.244;5.724;2023-09-07T11:31:35;29.50;49.00
68922;DHT22;55959;51.244;5.724;2023-09-07T11:34:02;29.60;49.10
68922;DHT22;55959;51.244;5.724;2023-09-07T11:36:27;29.60;48.90
68922;DHT22;55959;51.244;5.724;2023-09-07T11:38:53;29.70;48.50
68922;DHT22;55959;51.244;5.724;2023-09-07T11:41:19;29.70;48.60
68922;DHT22;55959;51.244;5.724;2023-09-07T11:43:44;29.80;48.60
68922;DHT22;55959;51.244;5.724;2023-09-07T11:46:10;29.90;48.50
68922;DHT22;55959;51.244;5.724;2023-09-07T11:48:36;29.90;48.80
68922;DHT22;55959;51.244;5.724;2023-09-07T11:51:02;29.90;48.30
68922;DHT22;55959;51.244;5.724;2023-09-07T11:53:28;30.00;48.30
68922;DHT22;55959;51.244;5.724;2023-09-07T11:55:54;30.10;48.30
68922;DHT22;55959;51.244;5.724;2023-09-07T11:58:20;30.20;48.70
68922;DHT22;55959;51.244;5.724;2023-09-07T12:00:46;30.20;48.00
68922;DHT22;55959;51.244;5.724;2023-09-07T12:03:12;30.30;47.90
68922;DHT22;55959;51.244;5.724;2023-09-07T12:05:38;30.40;46.90
68922;DHT22;55959;51.244;5.724;2023-09-07T12:08:06;30.40;46.70
68922;DHT22;55959;51.244;5.724;2023-09-07T12:10:31;30.40;47.10
68922;DHT22;55959;51.244;5.724;2023-09-07T12:12:57;30.50;46.70
68922;DHT22;55959;51.244;5.724;2023-09-07T12:15:23;30.60;46.90
68922;DHT22;55959;51.244;5.724;2023-09-07T12:17:51;30.60;46.80
68922;DHT22;55959;51.244;5.724;2023-09-07T12:20:20;30.70;46.20
68922;DHT22;55959;51.244;5.724;2023-09-07T12:22:46;30.80;45.90
68922;DHT22;55959;51.244;5.724;2023-09-07T12:25:12;30.80;45.60
68922;DHT22;55959;51.244;5.724;2023-09-07T12:27:38;30.80;45.50
68922;DHT22;55959;51.244;5.724;2023-09-07T12:30:04;30.90;45.30
68922;DHT22;55959;51.244;5.724;2023-09-07T12:32:33;31.00;45.30
68922;DHT22;55959;51.244;5.724;2023-09-07T12:34:59;31.00;45.30
68922;DHT22;55959;51.244;5.724;2023-09-07T12:37:25;31.10;45.40
68922;DHT22;55959;51.244;5.724;2023-09-07T12:39:51;31.20;45.20
68922;DHT22;55959;51.244;5.724;2023-09-07T12:42:17;31.20;44.70
68922;DHT22;55959;51.244;5.724;2023-09-07T12:44:44;31.20;44.20
68922;DHT22;55959;51.244;5.724;2023-09-07T12:47:10;31.30;43.80
68922;DHT22;55959;51.244;5.724;2023-09-07T12:49:35;31.30;44.00
68922;DHT22;55959;51.244;5.724;2023-09-07T12:52:01;31.40;44.00
68922;DHT22;55959;51.244;5.724;2023-09-07T12:54:34;31.40;43.90
68922;DHT22;55959;51.244;5.724;2023-09-07T12:57:01;31.40;43.90
68922;DHT22;55959;51.244;5.724;2023-09-07T12:59:26;31.50;43.90
68922;DHT22;55959;51.244;5.724;2023-09-07T13:01:52;31.50;43.90
68922;DHT22;55959;51.244;5.724;2023-09-07T13:04:21;31.60;43.40
68922;DHT22;55959;51.244;5.724;2023-09-07T13:06:47;31.60;43.40
68922;DHT22;55959;51.244;5.724;2023-09-07T13:09:13;31.60;43.60
68922;DHT22;55959;51.244;5.724;2023-09-07T13:11:38;31.70;43.60
68922;DHT22;55959;51.244;5.724;2023-09-07T13:14:05;31.70;43.80
68922;DHT22;55959;51.244;5.724;2023-09-07T13:16:31;31.80;43.70
68922;DHT22;55959;51.244;5.724;2023-09-07T13:18:58;31.80;43.50
68922;DHT22;55959;51.244;5.724;2023-09-07T13:21:24;31.80;43.30
68922;DHT22;55959;51.244;5.724;2023-09-07T13:23:49;31.90;43.50
68922;DHT22;55959;51.244;5.724;2023-09-07T13:26:15;31.90;43.40
68922;DHT22;55959;51.244;5.724;2023-09-07T13:28:41;32.00;43.40
68922;DHT22;55959;51.244;5.724;2023-09-07T13:31:07;32.00;42.90
68922;DHT22;55959;51.244;5.724;2023-09-07T13:33:32;32.00;42.90
68922;DHT22;55959;51.244;5.724;2023-09-07T13:35:59;32.10;42.70
68922;DHT22;55959;51.244;5.724;2023-09-07T13:38:25;32.10;42.40
68922;DHT22;55959;51.244;5.724;2023-09-07T13:40:52;32.20;42.60
68922;DHT22;55959;51.244;5.724;2023-09-07T13:43:17;32.20;42.30
68922;DHT22;55959;51.244;5.724;2023-09-07T13:45:43;32.20;42.00
68922;DHT22;55959;51.244;5.724;2023-09-07T13:48:09;32.30;42.10
68922;DHT22;55959;51.244;5.724;2023-09-07T13:50:36;32.30;42.30
68922;DHT22;55959;51.244;5.724;2023-09-07T13:53:01;32.30;42.20
68922;DHT22;55959;51.244;5.724;2023-09-07T13:55:27;32.40;41.80
68922;DHT22;55959;51.244;5.724;2023-09-07T13:57:53;32.40;41.80
68922;DHT22;55959;51.244;5.724;2023-09-07T14:00:19;32.50;41.60
68922;DHT22;55959;51.244;5.724;2023-09-07T14:02:45;32.50;41.40
68922;DHT22;55959;51.244;5.724;2023-09-07T14:05:11;32.50;41.50
68922;DHT22;55959;51.244;5.724;2023-09-07T14:07:36;32.50;41.60
68922;DHT22;55959;51.244;5.724;2023-09-07T14:10:02;32.60;41.70
68922;DHT22;55959;51.244;5.724;2023-09-07T14:12:28;32.60;41.80
68922;DHT22;55959;51.244;5.724;2023-09-07T14:14:54;32.60;42.10
68922;DHT22;55959;51.244;5.724;2023-09-07T14:17:19;32.70;42.50
68922;DHT22;55959;51.244;5.724;2023-09-07T14:19:45;32.70;42.70
68922;DHT22;55959;51.244;5.724;2023-09-07T14:22:14;32.80;42.80
68922;DHT22;55959;51.244;5.724;2023-09-07T14:24:40;32.90;42.30
68922;DHT22;55959;51.244;5.724;2023-09-07T14:27:05;32.90;41.70
68922;DHT22;55959;51.244;5.724;2023-09-07T14:29:31;32.90;41.50
68922;DHT22;55959;51.244;5.724;2023-09-07T14:31:57;33.00;41.40
68922;DHT22;55959;51.244;5.724;2023-09-07T14:34:23;33.10;41.70
68922;DHT22;55959;51.244;5.724;2023-09-07T14:36:48;33.10;41.30
68922;DHT22;55959;51.244;5.724;2023-09-07T14:39:14;33.10;40.90
68922;DHT22;55959;51.244;5.724;2023-09-07T14:41:41;33.20;41.00
68922;DHT22;55959;51.244;5.724;2023-09-07T14:44:08;33.20;40.60
68922;DHT22;55959;51.244;5.724;2023-09-07T14:46:35;33.20;40.70
68922;DHT22;55959;51.244;5.724;2023-09-07T14:49:01;33.30;40.80
68922;DHT22;55959;51.244;5.724;2023-09-07T14:51:27;33.30;40.60
68922;DHT22;55959;51.244;5.724;2023-09-07T14:53:53;33.30;40.30
68922;DHT22;55959;51.244;5.724;2023-09-07T14:56:22;33.40;40.50
68922;DHT22;55959;51.244;5.724;2023-09-07T14:58:48;33.40;40.30
68922;DHT22;55959;51.244;5.724;2023-09-07T15:01:14;33.40;40.20
68922;DHT22;55959;51.244;5.724;2023-09-07T15:03:39;33.40;40.40
68922;DHT22;55959;51.244;5.724;2023-09-07T15:06:16;33.50;40.20
68922;DHT22;55959;51.244;5.724;2023-09-07T15:08:52;33.50;40.30
68922;DHT22;55959;51.244;5.724;2023-09-07T15:11:21;33.50;40.20
68922;DHT22;55959;51.244;5.724;2023-09-07T15:13:49;33.50;39.70
68922;DHT22;55959;51.244;5.724;2023-09-07T15:16:17;33.50;39.70
68922;DHT22;55959;51.244;5.724;2023-09-07T15:18:42;33.50;39.70
68922;DHT22;55959;51.244;5.724;2023-09-07T15:21:15;33.60;39.80
68922;DHT22;55959;51.244;5.724;2023-09-07T15:23:41;33.60;39.50
68922;DHT22;55959;51.244;5.724;2023-09-07T15:26:11;33.60;39.50
68922;DHT22;55959;51.244;5.724;2023-09-07T15:28:38;33.70;39.30